Terminal Aerodrome Forecast
Issued by NWS

Home | Current Version | Previous Version | Text Only | Print | Product List | Glossary On
Versions: 1 2 3 4 5 6 7 8 9 10 11 12 13 14 15 16 17 18 19 20 21 22
000
FTUS46 KMFR 012341
TAFOTH
TAF
KOTH 012341Z 0200/0224 33012G18KT P6SM FEW025 SCT040
     FM020200 34011G17KT 6SM -SHRA SCT020 BKN030 BKN060
     FM020300 36009KT P6SM VCSH SCT020 SCT030
     FM020600 14003KT P6SM SCT020 BKN035
     FM022100 35010G16KT P6SM SCT035 SCT050=

USA.gov is the U.S. government's official web portal to all federal, state and local government web resources and services.